createdAt,value
2019-02-26T00:01:14.393Z,47.67
2019-02-26T00:03:43.470Z,45.67
2019-02-26T00:06:12.925Z,44.90
2019-02-26T00:08:42.289Z,42.20
2019-02-26T00:11:11.659Z,47.13
2019-02-26T00:13:41.050Z,46.30
2019-02-26T00:16:11.008Z,41.33
2019-02-26T00:18:42.663Z,43.87
2019-02-26T00:21:12.114Z,42.87
2019-02-26T00:23:42.030Z,41.47
2019-02-26T00:26:17.763Z,39.07
2019-02-26T00:28:46.281Z,41.23
2019-02-26T00:31:23.401Z,40.63
2019-02-26T00:33:52.426Z,42.17
2019-02-26T00:36:21.797Z,45.47
2019-02-26T00:39:05.497Z,42.03
2019-02-26T00:41:36.206Z,36.17
2019-02-26T00:44:06.578Z,37.47
2019-02-26T00:46:36.980Z,35.23
2019-02-26T00:49:07.630Z,35.53
2019-02-26T00:51:43.321Z,35.47
2019-02-26T00:54:14.359Z,34.60
2019-02-26T00:56:43.702Z,36.93
2019-02-26T00:59:13.171Z,39.93
2019-02-26T01:01:46.027Z,38.47
2019-02-26T01:04:13.587Z,39.40
2019-02-26T01:06:42.987Z,36.87
2019-02-26T01:09:14.012Z,36.50
2019-02-26T01:11:45.081Z,39.57
2019-02-26T01:14:15.832Z,42.93
2019-02-26T01:16:46.013Z,42.23
2019-02-26T01:19:17.521Z,38.80
2019-02-26T01:21:47.166Z,41.17
2019-02-26T01:24:16.532Z,36.30
2019-02-26T01:26:45.939Z,33.00
2019-02-26T01:29:18.973Z,37.67
2019-02-26T01:31:48.562Z,41.57
2019-02-26T01:34:20.806Z,46.03
2019-02-26T01:36:51.230Z,42.63
2019-02-26T01:39:22.829Z,42.40
2019-02-26T01:41:53.995Z,42.27
2019-02-26T01:44:22.699Z,42.30
2019-02-26T01:46:53.362Z,42.93
2019-02-26T01:49:25.868Z,56.47
2019-02-26T01:51:56.183Z,48.93
2019-02-26T01:54:25.668Z,56.07
2019-02-26T01:56:56.057Z,58.20
2019-02-26T01:59:25.465Z,52.17
2019-02-26T02:01:56.082Z,51.10
2019-02-26T02:04:25.498Z,51.10
2019-02-26T02:06:56.723Z,49.27
2019-02-26T02:09:26.012Z,49.27
2019-02-26T02:11:57.352Z,45.53
2019-02-26T02:14:27.431Z,39.43
2019-02-26T02:16:56.791Z,39.87
2019-02-26T02:19:27.605Z,43.23
2019-02-26T02:21:58.289Z,46.77
2019-02-26T02:24:29.826Z,54.33
2019-02-26T02:27:00.334Z,57.80
2019-02-26T02:29:29.829Z,57.97
2019-02-26T02:32:02.230Z,52.23
2019-02-26T02:34:33.110Z,52.23
2019-02-26T02:37:12.101Z,51.97
2019-02-26T02:39:41.475Z,54.90
2019-02-26T02:42:14.135Z,55.13
2019-02-26T02:44:44.967Z,59.07
2019-02-26T02:47:17.629Z,56.60
2019-02-26T02:49:48.055Z,47.40
2019-02-26T02:52:17.435Z,47.47
2019-02-26T02:54:55.079Z,38.67
2019-02-26T02:57:26.785Z,37.73
2019-02-26T03:00:02.961Z,44.67
2019-02-26T03:02:37.483Z,42.80
2019-02-26T03:05:05.947Z,42.33
2019-02-26T03:07:36.358Z,45.90
2019-02-26T03:10:12.075Z,41.70
2019-02-26T03:12:44.072Z,41.80
2019-02-26T03:15:16.237Z,41.00
2019-02-26T03:17:45.772Z,41.73
2019-02-26T03:20:31.377Z,37.13
2019-02-26T03:23:04.030Z,46.50
2019-02-26T03:25:32.649Z,47.20
2019-02-26T03:28:02.049Z,44.30
2019-02-26T03:30:40.544Z,45.50
2019-02-26T03:33:06.380Z,46.07
2019-02-26T03:35:35.891Z,49.23
2019-02-26T03:38:05.374Z,57.27
2019-02-26T03:40:36.136Z,57.30
2019-02-26T03:43:07.730Z,54.63
2019-02-26T03:45:36.857Z,61.50
2019-02-26T03:48:06.247Z,60.17
2019-02-26T03:50:35.613Z,54.90
2019-02-26T03:53:08.987Z,53.27
2019-02-26T03:55:38.814Z,52.90
2019-02-26T03:58:07.385Z,59.43
2019-02-26T04:00:41.699Z,58.37
2019-02-26T04:03:11.865Z,63.77
2019-02-26T04:05:40.857Z,59.60
2019-02-26T04:08:10.354Z,61.40
2019-02-26T04:10:39.751Z,61.43
2019-02-26T04:13:17.354Z,59.37
2019-02-26T04:15:46.791Z,59.77
2019-02-26T04:18:21.958Z,63.27
2019-02-26T04:20:51.452Z,59.37
2019-02-26T04:23:22.038Z,63.10
2019-02-26T04:25:59.495Z,59.43
2019-02-26T04:28:50.308Z,62.13
2019-02-26T04:31:47.088Z,61.27
2019-02-26T04:34:37.240Z,61.37
2019-02-26T04:37:27.359Z,60.67
2019-02-26T04:40:14.095Z,51.30
2019-02-26T04:42:50.431Z,51.73
2019-02-26T04:45:42.315Z,51.23
2019-02-26T04:48:17.550Z,48.93
2019-02-26T04:50:45.897Z,47.60
2019-02-26T04:53:15.455Z,46.57
2019-02-26T04:55:44.990Z,47.37
2019-02-26T04:58:15.540Z,50.33
2019-02-26T05:00:45.526Z,41.77
2019-02-26T05:03:17.172Z,47.33
2019-02-26T05:05:46.005Z,51.83
2019-02-26T05:08:17.746Z,51.87
2019-02-26T05:10:49.815Z,60.43
2019-02-26T05:13:18.471Z,57.80
2019-02-26T05:15:47.850Z,50.80
2019-02-26T05:18:20.352Z,49.33
2019-02-26T05:20:52.362Z,48.53
2019-02-26T05:23:23.265Z,52.50
2019-02-26T05:25:52.804Z,49.30
2019-02-26T05:28:22.231Z,52.83
2019-02-26T05:30:53.487Z,47.97
2019-02-26T05:33:24.770Z,48.97
2019-02-26T05:35:53.991Z,48.30
2019-02-26T05:38:24.018Z,50.13
2019-02-26T05:40:55.811Z,50.87
2019-02-26T05:43:26.312Z,49.97
2019-02-26T05:45:59.937Z,51.77
2019-02-26T05:48:28.663Z,51.23
2019-02-26T05:50:59.967Z,45.73
2019-02-26T05:53:29.146Z,50.43
2019-02-26T05:55:58.518Z,50.97
2019-02-26T05:58:27.922Z,52.03
2019-02-26T06:00:57.277Z,54.00
2019-02-26T06:03:26.656Z,52.93
2019-02-26T06:05:58.257Z,52.67
2019-02-26T06:08:32.280Z,46.90
2019-02-26T06:10:58.297Z,52.03
2019-02-26T06:13:29.103Z,48.40
2019-02-26T06:16:02.263Z,44.00
2019-02-26T06:18:31.520Z,44.37
2019-02-26T06:21:01.382Z,46.53
2019-02-26T06:23:34.474Z,43.90
2019-02-26T06:26:10.781Z,39.80
2019-02-26T06:28:40.937Z,37.33
2019-02-26T06:31:12.167Z,44.93
2019-02-26T06:33:43.114Z,46.53
2019-02-26T06:36:12.252Z,49.30
2019-02-26T06:38:41.624Z,54.47
2019-02-26T06:41:14.155Z,53.30
2019-02-26T06:43:47.576Z,53.00
2019-02-26T06:46:21.157Z,51.13
2019-02-26T06:48:50.573Z,62.70
2019-02-26T06:51:23.323Z,65.50
2019-02-26T06:53:54.090Z,61.93
2019-02-26T06:56:23.191Z,66.23
2019-02-26T06:58:52.617Z,60.67
2019-02-26T07:01:21.985Z,59.27
2019-02-26T07:03:51.360Z,61.20
2019-02-26T07:06:25.094Z,65.23
2019-02-26T07:08:53.471Z,65.00
2019-02-26T07:11:25.555Z,64.17
2019-02-26T07:13:58.852Z,56.63
2019-02-26T07:16:28.745Z,55.60
2019-02-26T07:18:59.042Z,50.40
2019-02-26T07:21:33.397Z,46.27
2019-02-26T07:24:03.448Z,44.63
2019-02-26T07:26:33.060Z,37.67
2019-02-26T07:29:03.467Z,36.57
2019-02-26T07:31:39.684Z,36.67
2019-02-26T07:34:11.076Z,31.63
2019-02-26T07:36:41.082Z,36.47
2019-02-26T07:39:13.042Z,37.03
2019-02-26T07:41:44.511Z,33.63
2019-02-26T07:44:15.673Z,35.33
2019-02-26T07:46:53.802Z,32.27
2019-02-26T07:49:23.162Z,39.50
2019-02-26T07:51:52.537Z,41.13
2019-02-26T07:54:21.944Z,37.47
2019-02-26T07:56:52.492Z,39.07
2019-02-26T07:59:27.649Z,40.87
2019-02-26T08:01:53.441Z,38.83
2019-02-26T08:04:22.840Z,41.60
2019-02-26T08:06:54.141Z,40.23
2019-02-26T08:09:23.692Z,40.00
2019-02-26T08:11:53.252Z,42.47
2019-02-26T08:14:23.298Z,39.37
2019-02-26T08:16:56.130Z,42.43
2019-02-26T08:19:29.633Z,42.43
2019-02-26T08:21:57.188Z,49.67
2019-02-26T08:24:26.562Z,41.20
2019-02-26T08:26:56.865Z,39.57
2019-02-26T08:29:27.302Z,43.07
2019-02-26T08:31:59.231Z,46.27
2019-02-26T08:34:28.364Z,44.37
2019-02-26T08:36:58.816Z,41.73
2019-02-26T08:39:28.246Z,42.77
2019-02-26T08:42:06.782Z,48.33
2019-02-26T08:44:36.252Z,44.80
2019-02-26T08:47:08.808Z,45.20
2019-02-26T08:49:40.111Z,43.73
2019-02-26T08:52:09.889Z,40.07
2019-02-26T08:54:39.227Z,46.90
2019-02-26T08:57:08.645Z,42.03
2019-02-26T08:59:38.042Z,43.53
2019-02-26T09:02:07.445Z,42.80
2019-02-26T09:04:38.339Z,46.33
2019-02-26T09:07:07.972Z,42.70
2019-02-26T09:09:37.417Z,45.77
2019-02-26T09:12:06.787Z,42.27
2019-02-26T09:14:37.632Z,45.23
2019-02-26T09:17:07.237Z,46.67
2019-02-26T09:19:38.081Z,49.53
2019-02-26T09:22:09.682Z,50.00
2019-02-26T09:24:38.748Z,52.57
2019-02-26T09:27:08.165Z,50.77
2019-02-26T09:29:39.287Z,53.13
2019-02-26T09:32:14.401Z,54.33
2019-02-26T09:34:44.126Z,54.10
2019-02-26T09:37:13.491Z,55.73
2019-02-26T09:39:42.886Z,57.10
2019-02-26T09:42:14.368Z,55.97
2019-02-26T09:44:43.725Z,57.23
2019-02-26T09:47:13.081Z,53.97
2019-02-26T09:49:42.450Z,56.20
2019-02-26T09:52:11.793Z,56.37
2019-02-26T09:54:45.763Z,62.90
2019-02-26T09:57:17.583Z,55.87
2019-02-26T09:59:47.222Z,59.30
2019-02-26T10:02:17.273Z,57.00
2019-02-26T10:04:54.457Z,60.60
2019-02-26T10:07:26.049Z,55.60
2019-02-26T10:09:55.125Z,58.57
2019-02-26T10:12:24.566Z,57.93
2019-02-26T10:15:02.025Z,57.30
2019-02-26T10:17:30.129Z,58.40
2019-02-26T10:20:11.700Z,57.50
2019-02-26T10:22:41.137Z,59.67
2019-02-26T10:25:12.302Z,59.07
2019-02-26T10:27:45.363Z,55.37
2019-02-26T10:30:16.396Z,57.67
2019-02-26T10:32:47.089Z,58.57
2019-02-26T10:35:22.579Z,60.27
2019-02-26T10:38:05.121Z,54.13
2019-02-26T10:40:35.504Z,59.07
2019-02-26T10:43:06.425Z,57.03
2019-02-26T10:45:54.399Z,56.30
2019-02-26T10:48:25.109Z,57.03
2019-02-26T10:50:54.275Z,60.63
2019-02-26T10:53:23.652Z,54.80
2019-02-26T10:55:53.057Z,56.07
2019-02-26T10:58:22.428Z,57.10
2019-02-26T11:00:55.702Z,57.73
2019-02-26T11:03:24.977Z,54.33
2019-02-26T11:05:55.379Z,56.93
2019-02-26T11:08:28.967Z,54.33
2019-02-26T11:11:04.505Z,58.00
2019-02-26T11:13:53.838Z,61.90
2019-02-26T11:16:25.358Z,59.10
2019-02-26T11:18:55.014Z,56.03
2019-02-26T11:21:24.400Z,59.07
2019-02-26T11:23:53.720Z,54.07
2019-02-26T11:26:23.035Z,53.60
2019-02-26T11:28:52.355Z,56.03
2019-02-26T11:31:25.349Z,62.13
2019-02-26T11:33:56.358Z,54.90
2019-02-26T11:36:25.131Z,54.57
2019-02-26T11:38:54.535Z,55.17
2019-02-26T11:41:26.455Z,52.80
2019-02-26T11:43:55.851Z,51.77
2019-02-26T11:46:27.126Z,52.40
2019-02-26T11:48:57.671Z,51.80
2019-02-26T11:51:36.626Z,55.63
2019-02-26T11:54:00.031Z,54.50
2019-02-26T11:56:29.958Z,54.83
2019-02-26T11:58:59.266Z,54.43
2019-02-26T12:01:29.370Z,49.43
2019-02-26T12:04:03.525Z,54.07
2019-02-26T12:06:31.698Z,52.27
2019-02-26T12:09:02.658Z,51.37
2019-02-26T12:11:33.622Z,49.43
2019-02-26T12:14:02.935Z,49.53
2019-02-26T12:16:32.338Z,52.87
2019-02-26T12:19:03.533Z,53.47
2019-02-26T12:21:34.494Z,52.90
2019-02-26T12:24:05.964Z,52.10
2019-02-26T12:26:34.730Z,54.80
2019-02-26T12:29:04.423Z,50.23
2019-02-26T12:31:36.352Z,48.03
2019-02-26T12:34:04.970Z,51.83
2019-02-26T12:36:35.530Z,60.77
2019-02-26T12:39:06.662Z,51.00
2019-02-26T12:41:41.194Z,49.77
2019-02-26T12:44:11.428Z,48.97
2019-02-26T12:46:39.575Z,46.43
2019-02-26T12:49:12.050Z,46.07
2019-02-26T12:51:39.934Z,50.77
2019-02-26T12:54:10.121Z,46.17
2019-02-26T12:56:40.309Z,46.20
2019-02-26T12:59:09.618Z,44.90
2019-02-26T13:01:40.841Z,52.23
2019-02-26T13:04:12.964Z,52.20
2019-02-26T13:06:45.356Z,46.40
2019-02-26T13:09:13.221Z,47.87
2019-02-26T13:12:00.204Z,49.40
2019-02-26T13:14:13.535Z,48.33
2019-02-26T13:16:46.112Z,49.37
2019-02-26T13:19:18.377Z,48.13
2019-02-26T13:21:45.240Z,51.10
2019-02-26T13:24:17.743Z,48.50
2019-02-26T13:26:50.269Z,51.97
2019-02-26T13:29:16.708Z,50.23
2019-02-26T13:31:56.058Z,47.67
2019-02-26T13:34:17.046Z,49.07
2019-02-26T13:36:52.233Z,48.10
2019-02-26T13:39:21.834Z,48.17
2019-02-26T13:41:54.412Z,48.43
2019-02-26T13:44:19.727Z,47.97
2019-02-26T13:46:49.042Z,45.50
2019-02-26T13:49:18.346Z,47.67
2019-02-26T13:51:48.726Z,45.67
2019-02-26T13:54:18.054Z,48.03
2019-02-26T13:56:47.610Z,47.27
2019-02-26T13:59:16.926Z,45.37
2019-02-26T14:01:46.495Z,44.23
2019-02-26T14:04:15.895Z,48.97
2019-02-26T14:06:45.274Z,46.80
2019-02-26T14:09:14.667Z,43.50
2019-02-26T14:11:44.094Z,46.53
2019-02-26T14:14:13.408Z,44.37
2019-02-26T14:16:43.088Z,47.47
2019-02-26T14:19:12.403Z,52.97
2019-02-26T14:21:41.742Z,49.33
2019-02-26T14:24:11.122Z,46.90
2019-02-26T14:26:40.426Z,46.47
2019-02-26T14:29:09.918Z,45.17
2019-02-26T14:31:40.179Z,46.60
2019-02-26T14:34:09.495Z,43.73
2019-02-26T14:36:38.806Z,49.70
2019-02-26T14:39:09.720Z,45.23
2019-02-26T14:41:39.103Z,46.27
2019-02-26T14:44:08.403Z,46.97
2019-02-26T14:46:37.744Z,45.80
2019-02-26T14:49:07.111Z,44.50
2019-02-26T14:51:36.698Z,46.37
2019-02-26T14:54:06.531Z,46.67
2019-02-26T14:56:35.987Z,49.63
2019-02-26T14:59:05.311Z,49.50
2019-02-26T15:01:34.616Z,43.93
2019-02-26T15:04:03.926Z,44.37
2019-02-26T15:06:33.242Z,51.83
2019-02-26T15:09:02.623Z,48.53
2019-02-26T15:11:33.574Z,44.97
2019-02-26T15:14:03.057Z,47.07
2019-02-26T15:16:32.360Z,45.23
2019-02-26T15:19:01.659Z,45.33
2019-02-26T15:21:30.968Z,47.73
2019-02-26T15:24:00.271Z,40.07
2019-02-26T15:26:29.583Z,40.77
2019-02-26T15:28:58.943Z,39.97
2019-02-26T15:31:28.244Z,41.77
2019-02-26T15:33:57.598Z,40.50
2019-02-26T15:36:26.891Z,41.83
2019-02-26T15:38:56.203Z,41.67
2019-02-26T15:41:25.531Z,42.73
2019-02-26T15:43:56.493Z,50.43
2019-02-26T15:46:25.831Z,44.73
2019-02-26T15:48:55.418Z,56.37
2019-02-26T15:51:24.729Z,41.83
2019-02-26T15:53:55.551Z,42.83
2019-02-26T15:56:25.059Z,43.20
2019-02-26T15:58:54.389Z,44.40
2019-02-26T16:01:23.683Z,44.93
2019-02-26T16:03:53.017Z,45.97
2019-02-26T16:06:22.336Z,44.50
2019-02-26T16:08:51.702Z,44.13
2019-02-26T16:11:21.010Z,46.30
2019-02-26T16:13:50.310Z,48.57
2019-02-26T16:16:19.620Z,43.60
2019-02-26T16:18:48.962Z,43.90
2019-02-26T16:21:19.336Z,42.57
2019-02-26T16:23:48.799Z,48.90
2019-02-26T16:26:18.124Z,43.17
2019-02-26T16:28:47.510Z,56.73
2019-02-26T16:31:16.908Z,44.50
2019-02-26T16:33:46.743Z,42.23
2019-02-26T16:36:16.821Z,43.17
2019-02-26T16:38:50.611Z,45.17
2019-02-26T16:41:17.146Z,42.10
2019-02-26T16:43:47.284Z,43.00
2019-02-26T16:46:16.750Z,75.07
2019-02-26T16:48:46.339Z,46.63
2019-02-26T16:51:16.645Z,45.87
2019-02-26T16:53:46.731Z,40.57
2019-02-26T16:56:16.030Z,52.73
2019-02-26T16:58:45.342Z,52.33
2019-02-26T17:01:14.641Z,46.93
2019-02-26T17:03:43.946Z,43.70
2019-02-26T17:06:13.544Z,46.87
2019-02-26T17:08:44.687Z,43.00
2019-02-26T17:11:14.015Z,46.83
2019-02-26T17:13:44.157Z,52.43
2019-02-26T17:16:13.587Z,48.67
2019-02-26T17:18:43.410Z,46.17
2019-02-26T17:21:12.790Z,42.63
2019-02-26T17:23:42.136Z,41.80
2019-02-26T17:26:11.426Z,40.53
2019-02-26T17:28:43.564Z,41.70
2019-02-26T17:31:11.758Z,38.80
2019-02-26T17:33:41.086Z,45.33
2019-02-26T17:36:10.407Z,39.83
2019-02-26T17:38:39.709Z,41.70
2019-02-26T17:41:09.922Z,45.30
2019-02-26T17:43:40.002Z,45.97
2019-02-26T17:46:09.840Z,49.57
2019-02-26T17:48:43.426Z,46.23
2019-02-26T17:51:10.806Z,58.57
2019-02-26T17:53:40.106Z,57.73
2019-02-26T17:56:09.434Z,57.73
2019-02-26T17:58:38.731Z,70.83
2019-02-26T18:01:08.036Z,61.43
2019-02-26T18:03:37.360Z,66.63
2019-02-26T18:06:06.662Z,71.67
2019-02-26T18:08:35.967Z,87.70
2019-02-26T18:11:05.297Z,73.03
2019-02-26T18:13:34.624Z,77.63
2019-02-26T18:16:09.094Z,102.07
2019-02-26T18:18:35.027Z,71.17
2019-02-26T18:21:05.946Z,88.37
2019-02-26T18:23:37.493Z,83.70
2019-02-26T18:26:06.403Z,87.13
2019-02-26T18:28:36.795Z,80.57
2019-02-26T18:31:06.293Z,77.67
2019-02-26T18:33:36.235Z,85.17
2019-02-26T18:36:05.667Z,79.07
2019-02-26T18:38:36.341Z,71.70
2019-02-26T18:41:05.666Z,72.40
2019-02-26T18:43:34.982Z,78.83
2019-02-26T18:46:04.345Z,79.90
2019-02-26T18:48:33.789Z,77.83
2019-02-26T18:51:03.176Z,78.57
2019-02-26T18:53:32.492Z,77.03
2019-02-26T18:56:04.269Z,64.50
2019-02-26T18:58:34.271Z,55.13
2019-02-26T19:01:03.611Z,48.83
2019-02-26T19:03:32.922Z,45.17
2019-02-26T19:06:03.623Z,49.43
2019-02-26T19:08:34.639Z,43.03
2019-02-26T19:11:04.246Z,55.33
2019-02-26T19:13:35.573Z,54.27
2019-02-26T19:16:04.817Z,55.70
2019-02-26T19:18:35.679Z,62.93
2019-02-26T19:21:05.130Z,61.20
2019-02-26T19:23:34.495Z,58.70
2019-02-26T19:26:03.790Z,51.07
2019-02-26T19:28:33.103Z,49.70
2019-02-26T19:31:02.423Z,46.67
2019-02-26T19:33:31.756Z,48.40
2019-02-26T19:36:01.042Z,47.33
2019-02-26T19:38:30.351Z,51.73
2019-02-26T19:41:05.652Z,53.30
2019-02-26T19:43:34.955Z,56.33
2019-02-26T19:46:04.251Z,63.53
2019-02-26T19:48:34.059Z,63.90
2019-02-26T19:51:03.439Z,61.87
2019-02-26T19:53:34.730Z,62.10
2019-02-26T19:56:03.939Z,54.93
2019-02-26T19:58:33.243Z,49.03
2019-02-26T20:01:02.565Z,54.10
2019-02-26T20:03:39.514Z,56.37
2019-02-26T20:06:02.957Z,60.93
2019-02-26T20:08:32.291Z,54.70
2019-02-26T20:11:01.684Z,50.70
2019-02-26T20:13:31.690Z,59.30
2019-02-26T20:16:02.010Z,51.67
2019-02-26T20:18:31.322Z,54.60
2019-02-26T20:21:00.618Z,55.97
2019-02-26T20:23:29.966Z,53.97
2019-02-26T20:25:59.252Z,59.50
2019-02-26T20:28:28.555Z,54.87
2019-02-26T20:30:57.846Z,65.17
2019-02-26T20:33:27.147Z,56.33
2019-02-26T20:35:56.519Z,58.33
2019-02-26T20:38:25.892Z,58.33
2019-02-26T20:40:55.194Z,61.83
2019-02-26T20:43:25.454Z,60.20
2019-02-26T20:45:54.771Z,65.77
2019-02-26T20:48:24.087Z,62.40
2019-02-26T20:50:54.273Z,58.70
2019-02-26T20:53:24.394Z,59.53
2019-02-26T20:55:57.427Z,61.37
2019-02-26T20:58:24.712Z,56.60
2019-02-26T21:00:54.014Z,55.03
2019-02-26T21:03:23.426Z,57.47
2019-02-26T21:05:52.743Z,56.50
2019-02-26T21:08:22.122Z,59.53
2019-02-26T21:10:51.503Z,60.43
2019-02-26T21:13:20.812Z,53.20
2019-02-26T21:15:50.134Z,59.40
2019-02-26T21:18:19.441Z,59.03
2019-02-26T21:20:49.330Z,60.63
2019-02-26T21:23:19.902Z,59.90
2019-02-26T21:25:49.236Z,55.17
2019-02-26T21:28:18.524Z,56.37
2019-02-26T21:30:47.842Z,54.70
2019-02-26T21:33:17.159Z,53.90
2019-02-26T21:35:46.462Z,53.40
2019-02-26T21:38:15.758Z,52.47
2019-02-26T21:40:48.677Z,51.70
2019-02-26T21:43:16.073Z,58.97
2019-02-26T21:45:49.156Z,51.83
2019-02-26T21:48:16.387Z,44.63
2019-02-26T21:50:45.706Z,47.37
2019-02-26T21:53:15.880Z,45.53
2019-02-26T21:55:45.790Z,45.67
2019-02-26T21:58:16.084Z,48.90
2019-02-26T22:00:45.418Z,40.50
2019-02-26T22:03:14.710Z,46.13
2019-02-26T22:05:44.095Z,46.30
2019-02-26T22:08:13.402Z,48.70
2019-02-26T22:10:42.866Z,47.10
2019-02-26T22:13:12.778Z,43.47
2019-02-26T22:15:44.537Z,44.47
2019-02-26T22:18:13.079Z,55.67
2019-02-26T22:20:42.376Z,48.27
2019-02-26T22:23:11.687Z,46.27
2019-02-26T22:25:40.995Z,60.60
2019-02-26T22:28:10.286Z,58.77
2019-02-26T22:30:39.599Z,46.67
2019-02-26T22:33:08.914Z,45.23
2019-02-26T22:35:38.214Z,43.63
2019-02-26T22:38:07.519Z,39.63
2019-02-26T22:40:36.825Z,38.23
2019-02-26T22:43:06.134Z,43.13
2019-02-26T22:45:36.500Z,44.87
2019-02-26T22:48:05.834Z,43.23
2019-02-26T22:50:35.144Z,48.80
2019-02-26T22:53:04.619Z,48.27
2019-02-26T22:55:35.010Z,57.07
2019-02-26T22:58:04.326Z,51.97
2019-02-26T23:00:56.820Z,48.50
2019-02-26T23:03:27.766Z,48.30
2019-02-26T23:05:59.014Z,48.60
2019-02-26T23:08:29.360Z,51.53
2019-02-26T23:10:58.846Z,57.87
2019-02-26T23:13:31.515Z,52.43
2019-02-26T23:15:59.513Z,50.47
2019-02-26T23:18:30.968Z,52.93
2019-02-26T23:21:01.159Z,54.60
2019-02-26T23:23:44.389Z,50.63
2019-02-26T23:26:13.746Z,54.17
2019-02-26T23:28:44.099Z,52.43
2019-02-26T23:31:13.767Z,46.57
2019-02-26T23:33:43.132Z,46.67
2019-02-26T23:36:12.451Z,47.30
2019-02-26T23:38:44.049Z,49.50
2019-02-26T23:41:12.763Z,56.10
2019-02-26T23:43:42.928Z,46.00
2019-02-26T23:46:13.070Z,57.17
2019-02-26T23:48:42.388Z,49.60
2019-02-26T23:51:11.679Z,51.13
2019-02-26T23:53:40.988Z,45.53
2019-02-26T23:56:10.322Z,51.20
2019-02-26T23:58:39.627Z,54.20
